Date,TemperatureHighF,TemperatureAvgF,TemperatureLowF,DewpointHighF,DewpointAvgF,DewpointLowF,HumidityHigh,HumidityAvg,HumidityLow,PressureMaxIn,PressureMinIn,WindSpeedMaxMPH,WindSpeedAvgMPH,GustSpeedMaxMPH,PrecipitationSumIn
2013-1-1,52,43,39,37,33,28,83,67,45,29.80,29.71,16,2,0,0.00
2013-1-2,59,50,41,30,24,18,64,37,27,29.77,29.67,11,2,0,0.00
2013-1-3,61,51,45,34,24,15,60,36,24,29.78,29.68,4,0,0,0.00
2013-1-4,63,52,44,39,29,19,76,44,24,29.80,29.72,2,0,0,0.00
2013-1-5,56,45,40,46,41,35,94,85,65,29.80,29.65,10,1,0,0.26
2013-1-6,43,40,38,41,39,36,95,94,92,29.77,29.58,18,3,0,0.77
2013-1-7,54,46,38,42,38,35,95,75,51,29.82,29.72,9,1,0,0.01
2013-1-8,64,55,46,45,42,38,80,62,49,29.76,29.66,10,2,0,0.00
2013-1-9,56,48,38,45,40,36,96,79,53,29.67,29.56,12,2,0,0.32
2013-1-10,40,38,34,38,35,32,95,89,80,29.77,29.62,16,6,0,0.44
2013-1-11,45,39,36,38,35,31,95,85,73,29.83,29.70,19,5,0,0.14
2013-1-12,44,37,33,37,32,27,97,82,55,29.80,29.70,6,1,0,0.15
2013-1-13,44,37,32,31,22,14,82,55,34,29.80,29.71,8,2,0,0.00
2013-1-14,45,38,31,21,16,12,53,42,35,29.96,29.77,11,2,0,0.00
2013-1-15,52,44,37,28,21,13,61,42,31,30.02,29.94,5,1,0,0.00
2013-1-16,56,49,41,35,30,26,60,49,40,29.95,29.78,7,0,0,0.00
2013-1-17,70,60,52,39,31,24,43,34,24,29.78,29.68,6,1,0,0.00
2013-1-18,70,60,52,34,29,22,45,31,23,29.72,29.66,6,0,0,0.00
2013-1-19,70,60,54,36,26,21,35,27,19,29.74,29.68,10,2,0,0.00
2013-1-20,70,61,53,31,21,16,30,22,16,29.73,29.64,18,4,0,0.00
2013-1-21,70,63,56,32,18,7,26,18,12,29.69,29.60,13,4,0,0.00
2013-1-22,74,62,58,36,22,14,33,21,15,29.63,29.55,10,1,0,0.00
2013-1-23,64,57,48,41,31,19,77,40,20,29.58,29.50,16,3,0,0.01
2013-1-24,55,52,46,53,48,39,96,89,62,29.73,29.55,13,1,0,0.12
2013-1-25,63,55,51,56,53,50,97,91,76,29.73,29.59,15,1,0,0.02
2013-1-26,52,47,40,51,45,39,97,93,80,29.65,29.55,13,2,0,0.00
2013-1-27,47,41,39,41,38,37,96,90,73,29.74,29.64,17,5,0,0.14
2013-1-28,46,42,38,42,39,36,96,91,80,29.87,29.73,12,4,0,0.03
2013-1-29,52,45,39,44,40,37,97,84,63,29.91,29.83,5,1,0,0.00
2013-1-30,63,54,47,45,40,36,73,60,46,29.91,29.81,6,0,0,0.00
2013-1-31,64,56,49,44,39,30,68,55,32,29.82,29.71,3,0,0,0.00
2013-2-1,70,58,53,46,38,33,64,49,35,29.75,29.66,4,0,0,0.00
2013-2-2,64,56,43,48,38,32,92,53,35,29.80,29.73,4,0,0,0.00
2013-2-3,58,45,40,51,42,38,97,90,64,29.77,29.69,8,1,0,0.01
2013-2-4,65,56,46,46,38,30,79,53,31,29.72,29.61,7,1,0,0.00
2013-2-5,48,43,38,45,41,36,96,91,68,29.72,29.58,5,0,0,0.00
2013-2-6,53,43,37,44,39,33,95,84,56,29.76,29.69,7,1,0,0.00
2013-2-7,50,42,37,43,38,35,95,86,65,29.75,29.58,10,1,0,0.09
2013-2-8,42,38,33,39,36,31,96,93,80,29.58,29.49,10,2,0,0.33
2013-2-9,51,41,36,38,33,26,94,73,42,29.67,29.57,6,1,0,0.01
2013-2-10,55,46,38,35,30,25,74,55,39,29.68,29.59,6,0,0,0.00
2013-2-11,55,47,41,36,31,27,68,55,38,29.80,29.62,6,1,0,0.00
2013-2-12,55,48,41,42,32,26,71,56,42,29.90,29.80,6,0,0,0.00
2013-2-13,57,50,43,44,36,30,69,58,44,29.88,29.77,7,1,0,0.00
2013-2-14,65,56,47,42,37,33,64,50,36,29.77,29.70,6,1,0,0.00
2013-2-15,72,63,55,41,34,29,46,34,27,29.79,29.73,12,3,0,0.00
2013-2-16,70,61,51,38,31,25,58,34,24,29.76,29.60,10,2,0,0.00
2013-2-17,57,48,40,45,38,28,95,71,45,29.60,29.52,5,0,0,0.00
2013-2-18,43,40,37,41,38,34,95,90,74,29.62,29.55,6,0,0,0.01
2013-2-19,44,38,34,43,36,32,96,93,85,29.56,29.34,15,4,0,0.41
2013-2-20,48,40,33,42,37,32,95,89,76,29.66,29.40,13,3,0,0.07
2013-2-21,49,43,39,39,37,33,95,80,60,29.75,29.62,15,4,0,0.00
2013-2-22,58,48,40,40,33,27,92,58,39,29.83,29.74,12,1,0,0.00
2013-2-23,49,43,39,42,39,33,95,86,72,29.82,29.71,13,3,0,0.01
2013-2-24,55,46,39,35,28,22,78,52,31,29.82,29.73,12,2,0,0.00
2013-2-25,60,49,41,42,33,24,87,55,37,29.83,29.73,9,1,0,0.00
2013-2-26,61,53,45,37,27,21,73,39,24,29.77,29.69,12,2,0,0.00
2013-2-27,67,57,48,39,25,18,47,30,18,29.91,29.76,7,1,0,0.00
2013-2-28,64,55,48,49,42,31,81,63,45,29.98,29.90,11,1,0,0.00
2013-3-1,70,61,54,50,45,34,74,57,35,29.97,29.78,13,4,0,0.00
2013-3-2,68,62,53,48,37,28,65,41,28,29.78,29.61,7,1,0,0.00
2013-3-3,58,52,42,46,41,35,95,70,45,29.65,29.60,11,1,0,0.00
2013-3-4,56,44,38,49,42,36,97,91,74,29.70,29.62,8,1,0,0.01
2013-3-5,54,45,38,45,39,29,97,80,48,29.64,29.48,23,5,0,0.02
2013-3-6,51,46,42,44,41,36,95,83,60,29.65,29.48,22,6,0,0.36
2013-3-18,67,58,45,50,36,24,79,46,30,29.67,29.60,4,1,0,0.00
2013-3-19,69,57,46,46,37,20,84,49,28,29.71,29.60,20,2,0,0.03
2013-3-20,59,54,49,51,47,43,94,78,57,29.68,29.62,6,0,0,0.03
2013-3-21,57,47,40,48,43,37,97,86,64,29.68,29.58,10,1,0,0.03
2013-3-22,62,51,42,38,30,23,82,46,24,29.65,29.58,13,2,0,0.00
2013-3-23,65,54,47,41,28,17,67,38,23,29.67,29.60,9,1,0,0.00
2013-3-24,67,56,48,47,34,26,57,43,35,29.63,29.54,6,1,0,0.00
2013-3-25,65,52,39,49,40,33,94,65,47,29.55,29.50,6,1,0,0.00
2013-3-26,63,50,39,49,41,31,95,72,41,29.56,29.51,5,1,0,0.00
2013-3-27,66,52,44,53,46,39,92,79,62,29.59,29.50,12,2,0,0.00
2013-3-28,62,53,48,54,49,46,96,87,68,29.64,29.56,5,0,0,0.00
2013-3-29,69,59,49,53,49,44,91,71,52,29.63,29.58,9,1,0,0.00
2013-3-30,62,54,46,53,49,44,95,82,68,29.61,29.55,11,2,0,0.19
2013-3-31,63,54,47,51,46,43,90,75,58,29.63,29.56,15,5,0,0.19
2013-4-1,58,51,47,53,48,45,96,89,80,29.71,29.60,6,1,0,0.12
2013-4-2,63,53,44,54,48,43,96,82,61,29.73,29.66,9,1,0,0.00
2013-4-3,72,59,50,55,48,40,90,69,49,29.68,29.55,6,1,0,0.00
2013-4-4,67,55,48,58,50,39,96,82,57,29.67,29.56,12,2,0,0.05
2013-4-5,60,52,47,52,48,44,96,87,72,29.76,29.67,9,1,0,0.01
2013-4-6,63,52,45,53,48,43,95,85,68,29.77,29.70,7,1,0,0.00
2013-4-7,64,53,44,53,46,38,94,78,59,29.73,29.48,8,2,0,0.03
2013-4-8,53,45,40,46,40,37,95,84,59,29.59,29.43,24,9,0,0.13
2013-4-9,61,52,40,44,38,31,93,60,35,29.67,29.57,13,4,0,0.00
2013-4-10,77,63,50,49,40,30,81,44,33,29.74,29.63,11,3,0,0.00
2013-4-11,59,48,41,51,44,38,97,84,57,29.63,29.46,11,2,0,0.00
2013-4-12,70,56,41,51,43,35,97,66,34,29.49,29.42,10,1,0,0.00
2013-4-13,65,49,40,52,42,35,94,79,57,29.50,29.41,12,3,0,0.00
2013-4-14,58,47,38,43,38,32,94,72,47,29.51,29.45,13,3,0,0.00
2013-4-15,48,43,38,45,39,35,96,88,73,29.55,29.43,20,7,0,0.20
2013-4-16,54,45,35,39,34,30,95,69,48,29.70,29.54,12,2,0,0.00
2013-4-17,58,50,44,36,32,29,60,51,36,29.81,29.71,15,4,0,0.00
2013-4-18,67,57,47,39,29,23,51,36,26,29.83,29.77,9,1,0,0.00
2013-4-19,74,63,53,49,39,31,67,43,31,29.79,29.64,9,1,0,0.00
2013-4-20,74,61,53,50,43,34,68,52,35,29.64,29.56,8,1,0,0.00
2013-4-21,80,69,60,46,40,34,49,35,21,29.58,29.50,10,2,0,0.00
2013-4-22,79,70,62,51,43,36,46,37,31,29.52,29.41,6,1,0,0.00
2013-4-23,71,63,51,50,41,32,86,47,29,29.46,29.38,7,1,0,0.00
2013-4-24,61,55,47,50,44,31,95,68,34,29.51,29.37,11,1,0,0.00
2013-4-25,62,51,45,52,47,43,97,86,65,29.69,29.51,6,1,0,0.01
2013-4-26,74,60,45,55,45,35,94,60,38,29.77,29.68,6,0,0,0.00
2013-4-27,80,69,58,54,42,31,52,38,26,29.75,29.62,4,0,0,0.00
2013-4-28,79,71,60,51,38,25,40,30,21,29.61,29.45,4,0,0,0.00
2013-4-29,83,71,58,53,45,38,60,40,28,29.45,29.33,9,2,0,0.00
2013-4-30,73,62,44,50,42,26,90,50,23,29.42,29.30,2,0,0,0.00
2013-5-1,73,66,56,51,36,23,54,35,20,29.64,29.42,0,0,0,0.00
2013-5-2,86,74,64,48,38,29,37,27,17,29.69,29.63,0,0,0,0.00
2013-5-3,85,73,62,42,32,21,32,22,18,29.64,29.36,5,0,0,0.00
2013-5-4,76,68,46,50,39,23,93,40,19,29.35,29.12,7,1,0,0.00
2013-5-5,65,54,45,48,45,42,95,74,48,29.35,29.15,20,4,0,0.00
2013-5-6,64,56,50,49,45,43,90,69,49,29.52,29.35,17,4,0,0.00
2013-5-7,65,56,48,51,47,43,93,74,56,29.61,29.50,12,1,0,0.00
2013-5-8,63,53,44,52,47,42,92,79,60,29.70,29.60,10,1,0,0.00
2013-5-9,65,52,43,53,46,39,96,81,62,29.75,29.66,10,1,0,0.00
2013-5-10,76,65,49,56,50,46,94,61,45,29.75,29.67,5,1,0,0.00
2013-5-11,85,74,62,56,46,37,61,39,25,29.69,29.61,7,1,0,0.00
2013-5-12,82,71,61,55,44,32,51,39,26,29.66,29.58,14,2,0,0.00
2013-5-13,80,66,50,54,45,38,80,49,28,29.62,29.53,13,1,0,0.00
2013-5-14,65,53,44,51,46,41,96,79,50,29.65,29.51,10,2,0,0.00
2013-5-15,64,52,43,47,43,36,94,74,43,29.67,29.61,12,1,0,0.00
2013-5-16,65,54,46,53,48,43,97,82,54,29.64,29.57,10,2,0,0.00
2013-5-17,65,53,44,48,43,40,91,70,47,29.67,29.55,8,1,0,0.00
2013-5-18,68,53,42,49,45,40,94,76,47,29.72,29.66,10,2,0,0.00
2013-5-19,74,60,43,50,43,36,95,58,39,29.71,29.57,10,2,0,0.00
2013-5-20,84,70,61,48,36,-100,47,31,22,29.58,29.52,12,2,0,0.00
2013-5-21,64,54,40,48,39,16,91,61,16,29.58,29.45,14,4,0,0.00
2013-5-22,57,46,38,42,37,30,94,73,38,29.57,29.51,12,3,0,0.00
2013-5-23,55,46,40,43,40,37,93,80,58,29.62,29.54,25,5,0,0.00
2013-5-24,62,50,40,46,40,33,93,71,47,29.60,29.55,10,2,0,0.00
2013-5-25,59,48,40,46,43,38,95,83,61,29.67,29.58,8,2,0,0.00
2013-5-26,66,54,46,52,48,44,97,83,52,29.73,29.66,9,2,0,0.00
2013-5-27,64,54,46,53,49,45,96,85,65,29.72,29.61,9,1,0,0.02
2013-5-28,66,56,48,58,50,-100,97,85,59,29.61,29.50,11,2,0,0.04
2013-5-29,67,56,44,56,47,37,94,74,54,29.54,29.49,10,2,0,0.00
2013-5-30,71,56,41,48,40,30,95,58,30,29.58,29.50,10,1,0,0.00
2013-5-31,80,68,54,48,36,20,44,31,21,29.57,29.50,12,2,0,0.00
2013-6-1,88,76,67,51,44,39,41,33,25,29.50,29.33,8,1,0,0.00
2013-6-2,71,59,47,52,47,40,95,65,38,29.32,29.26,6,0,0,0.00
2013-6-3,68,55,44,54,49,43,97,83,61,29.43,29.30,6,1,0,0.01
2013-6-4,67,56,48,55,50,47,93,82,64,29.53,29.41,10,1,0,0.00
2013-6-5,68,56,46,54,50,44,97,82,60,29.55,29.51,6,0,0,0.01
2013-6-6,72,60,46,56,51,44,96,73,55,29.51,29.45,5,0,0,0.00
2013-6-7,93,78,62,60,52,44,68,42,27,29.46,29.31,0,0,0,0.00
2013-6-8,93,79,55,60,50,33,89,42,18,29.33,29.25,0,0,0,0.00
2013-6-9,69,57,50,58,53,49,96,87,66,29.44,29.32,0,0,0,0.00
2013-6-10,68,57,51,55,52,49,95,84,62,29.50,29.42,0,0,0,0.00
2013-6-11,71,58,51,58,53,50,97,85,60,29.53,29.47,0,0,0,0.00